createdAt,value
2024-03-02T00:01:59.724Z,80.53
2024-03-02T00:04:46.667Z,80.62
2024-03-02T00:07:33.981Z,80.65
2024-03-02T00:10:30.749Z,80.19
2024-03-02T00:13:17.803Z,80.30
2024-03-02T00:16:06.764Z,80.24
2024-03-02T00:18:56.161Z,80.32
2024-03-02T00:21:46.300Z,80.48
2024-03-02T00:24:38.202Z,80.59
2024-03-02T00:27:26.345Z,79.90
2024-03-02T00:30:32.897Z,80.06
2024-03-02T00:33:21.020Z,80.19
2024-03-02T00:36:09.540Z,80.20
2024-03-02T00:38:56.802Z,80.17
2024-03-02T00:41:46.198Z,80.22
2024-03-02T00:44:38.806Z,80.62
2024-03-02T00:47:27.553Z,80.80
2024-03-02T00:50:20.698Z,81.09
2024-03-02T00:53:14.313Z,81.17
2024-03-02T00:56:02.513Z,81.38
2024-03-02T00:58:49.180Z,81.54
2024-03-02T01:01:37.391Z,81.79
2024-03-02T01:04:24.209Z,81.86
2024-03-02T01:07:11.130Z,81.86
2024-03-02T01:09:58.191Z,81.85
2024-03-02T01:12:45.250Z,82.01
2024-03-02T01:15:32.043Z,82.04
2024-03-02T01:18:20.111Z,81.98
2024-03-02T01:21:07.381Z,82.15
2024-03-02T01:23:54.751Z,82.36
2024-03-02T01:26:42.154Z,82.66
2024-03-02T01:29:28.737Z,82.67
2024-03-02T01:32:15.657Z,82.50
2024-03-02T01:35:02.645Z,82.71
2024-03-02T01:37:49.496Z,82.40
2024-03-02T01:40:37.148Z,82.49
2024-03-02T01:43:24.178Z,82.56
2024-03-02T01:46:11.187Z,82.62
2024-03-02T01:48:58.244Z,82.47
2024-03-02T01:51:45.622Z,82.40
2024-03-02T01:54:32.712Z,82.35
2024-03-02T01:57:20.436Z,82.55
2024-03-02T02:00:08.584Z,82.38
2024-03-02T02:02:59.274Z,82.43
2024-03-02T02:05:47.201Z,82.46
2024-03-02T02:08:34.166Z,82.44
2024-03-02T02:11:21.191Z,82.29
2024-03-02T02:14:08.723Z,82.27
2024-03-02T02:16:55.743Z,82.39
2024-03-02T02:19:42.942Z,82.43
2024-03-02T02:22:32.678Z,82.42
2024-03-02T02:25:19.458Z,82.50
2024-03-02T02:28:06.753Z,82.70
2024-03-02T02:30:57.599Z,82.74
2024-03-02T02:33:44.693Z,82.61
2024-03-02T02:36:31.468Z,82.62
2024-03-02T02:39:19.392Z,82.37
2024-03-02T02:42:06.891Z,82.56
2024-03-02T02:44:53.261Z,81.98
2024-03-02T02:47:40.607Z,81.47
2024-03-02T02:50:27.488Z,80.98
2024-03-02T02:53:14.569Z,80.61
2024-03-02T02:56:04.085Z,80.45
2024-03-02T02:58:51.251Z,79.93
2024-03-02T03:01:38.377Z,79.77
2024-03-02T03:04:25.168Z,79.64
2024-03-02T03:07:12.411Z,79.62
2024-03-02T03:10:01.050Z,79.26
2024-03-02T03:12:48.597Z,79.52
2024-03-02T03:15:38.749Z,79.73
2024-03-02T03:18:25.523Z,80.12
2024-03-02T03:21:12.314Z,80.20
2024-03-02T03:24:01.714Z,80.46
2024-03-02T03:26:48.748Z,80.75
2024-03-02T03:29:37.628Z,80.83
2024-03-02T03:32:24.361Z,80.88
2024-03-02T03:35:11.646Z,81.12
2024-03-02T03:37:58.386Z,81.03
2024-03-02T03:40:46.200Z,81.13
2024-03-02T03:43:33.318Z,81.25
2024-03-02T03:46:22.061Z,81.16
2024-03-02T03:49:09.442Z,81.27
2024-03-02T03:51:56.297Z,81.14
2024-03-02T03:54:44.290Z,81.23
2024-03-02T03:57:31.425Z,81.15
2024-03-02T04:00:18.749Z,81.21
2024-03-02T04:03:05.991Z,81.14
2024-03-02T04:05:52.623Z,81.18
2024-03-02T04:08:39.636Z,80.91
2024-03-02T04:11:26.460Z,81.02
2024-03-02T04:14:13.808Z,80.73
2024-03-02T04:17:01.434Z,80.57
2024-03-02T04:19:49.700Z,80.85
2024-03-02T04:22:37.308Z,80.38
2024-03-02T04:25:24.079Z,79.82
2024-03-02T04:28:11.227Z,79.56
2024-03-02T04:30:59.371Z,79.34
2024-03-02T04:33:46.171Z,79.03
2024-03-02T04:36:33.188Z,78.79
2024-03-02T04:39:20.432Z,78.44
2024-03-02T04:42:08.098Z,78.39
2024-03-02T04:44:54.793Z,78.18
2024-03-02T04:47:41.661Z,78.13
2024-03-02T04:50:28.454Z,78.17
2024-03-02T04:53:15.233Z,77.99
2024-03-02T04:56:20.733Z,77.64
2024-03-02T04:59:08.164Z,77.53
2024-03-02T05:01:55.134Z,77.28
2024-03-02T05:04:43.245Z,76.97
2024-03-02T05:07:30.362Z,76.97
2024-03-02T05:10:19.938Z,76.83
2024-03-02T05:13:06.870Z,76.51
2024-03-02T05:15:53.589Z,76.53
2024-03-02T05:18:40.808Z,76.46
2024-03-02T05:21:27.837Z,76.32
2024-03-02T05:24:14.865Z,76.30
2024-03-02T05:27:01.854Z,76.19
2024-03-02T05:29:49.526Z,76.18
2024-03-02T05:32:36.159Z,76.20
2024-03-02T05:35:23.202Z,76.25
2024-03-02T05:38:10.289Z,76.13
2024-03-02T05:40:57.387Z,76.07
2024-03-02T05:43:44.358Z,76.66
2024-03-02T05:46:31.345Z,76.39
2024-03-02T05:49:18.330Z,76.19
2024-03-02T05:52:05.535Z,76.11
2024-03-02T05:54:52.871Z,76.15
2024-03-02T05:57:45.510Z,75.93
2024-03-02T06:00:33.003Z,75.97
2024-03-02T06:03:20.242Z,75.91
2024-03-02T06:06:07.298Z,75.81
2024-03-02T06:08:54.366Z,75.61
2024-03-02T06:11:42.506Z,75.64
2024-03-02T06:14:29.733Z,75.42
2024-03-02T06:17:16.617Z,75.34
2024-03-02T06:20:04.114Z,75.38
2024-03-02T06:22:51.690Z,75.36
2024-03-02T06:25:38.599Z,75.23
2024-03-02T06:28:25.406Z,75.16
2024-03-02T06:31:12.519Z,75.27
2024-03-02T06:33:59.421Z,75.05
2024-03-02T06:36:46.465Z,74.77
2024-03-02T06:39:35.432Z,75.13
2024-03-02T06:42:22.394Z,75.23
2024-03-02T06:45:09.481Z,75.08
2024-03-02T06:47:56.693Z,74.90
2024-03-02T06:50:46.374Z,74.67
2024-03-02T06:53:35.865Z,74.92
2024-03-02T06:56:22.775Z,74.96
2024-03-02T06:59:11.849Z,75.17
2024-03-02T07:01:59.289Z,74.82
2024-03-02T07:04:46.638Z,75.00
2024-03-02T07:07:34.635Z,75.01
2024-03-02T07:10:24.705Z,74.95
2024-03-02T07:13:11.691Z,74.81
2024-03-02T07:16:04.291Z,74.38
2024-03-02T07:18:53.070Z,74.38
2024-03-02T07:21:40.280Z,74.25
2024-03-02T07:24:29.111Z,74.53
2024-03-02T07:27:19.460Z,74.61
2024-03-02T07:30:07.558Z,74.26
2024-03-02T07:32:54.695Z,74.15
2024-03-02T07:35:41.676Z,74.05
2024-03-02T07:38:29.991Z,73.86
2024-03-02T07:41:20.214Z,73.32
2024-03-02T07:44:09.807Z,73.44
2024-03-02T07:46:56.592Z,73.48
2024-03-02T07:49:43.363Z,74.01
2024-03-02T07:52:30.473Z,73.79
2024-03-02T07:55:18.059Z,73.15
2024-03-02T07:58:05.190Z,73.16
2024-03-02T08:00:55.303Z,73.40
2024-03-02T08:03:42.494Z,73.00
2024-03-02T08:06:29.723Z,72.61
2024-03-02T08:09:16.696Z,72.24
2024-03-02T08:12:04.411Z,72.35
2024-03-02T08:14:51.366Z,72.45
2024-03-02T08:17:38.703Z,72.23
2024-03-02T08:20:25.907Z,71.82
2024-03-02T08:23:12.924Z,71.75
2024-03-02T08:25:59.701Z,72.05
2024-03-02T08:28:48.512Z,71.70
2024-03-02T08:31:37.575Z,71.14
2024-03-02T08:34:25.833Z,70.75
2024-03-02T08:37:12.883Z,70.48
2024-03-02T08:40:00.279Z,70.29
2024-03-02T08:42:48.587Z,69.88
2024-03-02T08:45:38.735Z,69.72
2024-03-02T08:48:27.662Z,69.64
2024-03-02T08:51:14.428Z,70.00
2024-03-02T08:54:03.366Z,69.88
2024-03-02T08:56:51.428Z,69.73
2024-03-02T08:59:38.331Z,69.70
2024-03-02T09:02:27.429Z,69.71
2024-03-02T09:05:17.321Z,69.59
2024-03-02T09:08:10.795Z,69.94
2024-03-02T09:10:57.992Z,69.95
2024-03-02T09:13:45.592Z,69.67
2024-03-02T09:16:32.752Z,69.94
2024-03-02T09:19:20.924Z,69.88
2024-03-02T09:22:09.661Z,69.55
2024-03-02T09:24:56.574Z,69.15
2024-03-02T09:27:45.846Z,69.50
2024-03-02T09:30:33.223Z,69.48
2024-03-02T09:33:20.964Z,69.12
2024-03-02T09:36:18.127Z,68.47
2024-03-02T09:39:06.600Z,68.72
2024-03-02T09:41:54.798Z,68.45
2024-03-02T09:44:44.086Z,68.23
2024-03-02T09:47:30.873Z,67.97
2024-03-02T09:50:18.472Z,68.23
2024-03-02T09:53:08.966Z,67.58
2024-03-02T09:55:56.255Z,68.08
2024-03-02T09:58:45.816Z,67.83
2024-03-02T10:01:33.629Z,67.82
2024-03-02T10:04:20.753Z,66.91
2024-03-02T10:07:16.637Z,67.32
2024-03-02T10:10:18.963Z,67.19
2024-03-02T10:13:06.945Z,67.05
2024-03-02T10:15:55.789Z,67.40
2024-03-02T10:18:53.247Z,67.21
2024-03-02T10:21:44.730Z,67.11
2024-03-02T10:24:41.009Z,66.70
2024-03-02T10:27:29.125Z,66.82
2024-03-02T10:30:16.652Z,67.18
2024-03-02T10:33:04.671Z,67.23
2024-03-02T10:35:51.764Z,67.40
2024-03-02T10:38:42.185Z,67.36
2024-03-02T10:41:30.236Z,67.23
2024-03-02T10:44:19.920Z,67.06
2024-03-02T10:47:07.228Z,67.15
2024-03-02T10:49:55.612Z,66.74
2024-03-02T10:52:43.966Z,66.82
2024-03-02T10:55:30.951Z,67.20
2024-03-02T10:58:18.497Z,67.05
2024-03-02T11:01:07.286Z,67.05
2024-03-02T11:03:56.063Z,66.34
2024-03-02T11:06:48.104Z,66.66
2024-03-02T11:09:37.041Z,66.51
2024-03-02T11:12:30.373Z,66.50
2024-03-02T11:15:23.079Z,66.47
2024-03-02T11:18:10.470Z,66.77
2024-03-02T11:20:57.475Z,66.76
2024-03-02T11:23:45.415Z,66.50
2024-03-02T11:26:40.461Z,66.74
2024-03-02T11:29:36.506Z,66.67
2024-03-02T11:32:26.274Z,66.56
2024-03-02T11:35:13.745Z,66.50
2024-03-02T11:38:02.540Z,66.33
2024-03-02T11:40:49.828Z,66.24
2024-03-02T11:43:40.945Z,66.39
2024-03-02T11:46:28.094Z,66.39
2024-03-02T11:49:21.862Z,66.15
2024-03-02T11:52:10.697Z,65.92
2024-03-02T11:54:58.326Z,66.03
2024-03-02T11:57:45.524Z,65.73
2024-03-02T12:00:32.862Z,65.57
2024-03-02T12:03:22.370Z,65.25
2024-03-02T12:06:12.029Z,64.84
2024-03-02T12:08:59.129Z,64.86
2024-03-02T12:11:46.106Z,64.63
2024-03-02T12:14:34.243Z,64.23
2024-03-02T12:17:22.517Z,63.77
2024-03-02T12:20:13.419Z,63.89
2024-03-02T12:23:01.909Z,63.73
2024-03-02T12:25:49.404Z,63.75
2024-03-02T12:28:36.486Z,64.19
2024-03-02T12:31:23.700Z,64.36
2024-03-02T12:34:10.613Z,64.57
2024-03-02T12:36:57.565Z,64.75
2024-03-02T12:39:48.728Z,64.93
2024-03-02T12:42:38.958Z,64.80
2024-03-02T12:45:28.592Z,65.00
2024-03-02T12:48:16.174Z,65.23
2024-03-02T12:51:06.819Z,65.52
2024-03-02T12:53:56.107Z,65.56
2024-03-02T12:56:47.439Z,65.71
2024-03-02T12:59:34.718Z,66.12
2024-03-02T13:02:21.746Z,66.27
2024-03-02T13:05:12.628Z,66.49
2024-03-02T13:08:00.965Z,66.88
2024-03-02T13:10:48.058Z,67.04
2024-03-02T13:13:35.848Z,67.25
2024-03-02T13:16:32.705Z,67.71
2024-03-02T13:19:21.642Z,68.01
2024-03-02T13:22:09.098Z,68.23
2024-03-02T13:24:56.297Z,68.39
2024-03-02T13:27:44.604Z,68.83
2024-03-02T13:30:31.560Z,68.87
2024-03-02T13:33:23.606Z,68.86
2024-03-02T13:36:11.609Z,68.98
2024-03-02T13:38:59.580Z,69.59
2024-03-02T13:41:53.937Z,70.01
2024-03-02T13:44:41.004Z,70.23
2024-03-02T13:47:28.862Z,70.57
2024-03-02T13:50:16.314Z,70.72
2024-03-02T13:53:04.451Z,70.91
2024-03-02T13:55:51.256Z,71.05
2024-03-02T13:58:38.480Z,71.29
2024-03-02T14:01:25.674Z,71.35
2024-03-02T14:04:13.948Z,71.41
2024-03-02T14:07:04.611Z,71.47
2024-03-02T14:09:51.778Z,71.55
2024-03-02T14:12:39.441Z,71.50
2024-03-02T14:15:26.409Z,71.59
2024-03-02T14:18:13.327Z,71.87
2024-03-02T14:21:00.340Z,71.68
2024-03-02T14:23:47.198Z,71.51
2024-03-02T14:26:34.570Z,71.42
2024-03-02T14:29:21.346Z,71.72
2024-03-02T14:32:08.518Z,71.74
2024-03-02T14:34:55.579Z,71.58
2024-03-02T14:37:43.679Z,71.70
2024-03-02T14:40:31.087Z,71.51
2024-03-02T14:43:18.061Z,71.54
2024-03-02T14:46:04.980Z,71.56
2024-03-02T14:48:52.250Z,71.49
2024-03-02T14:51:42.274Z,71.66
2024-03-02T14:54:29.519Z,71.51
2024-03-02T14:57:16.373Z,71.81
2024-03-02T15:00:04.029Z,71.90
2024-03-02T15:02:51.657Z,71.93
2024-03-02T15:05:40.250Z,71.86
2024-03-02T15:08:26.945Z,71.64
2024-03-02T15:11:14.698Z,71.80
2024-03-02T15:14:01.869Z,72.09
2024-03-02T15:16:49.765Z,71.92
2024-03-02T15:19:36.652Z,72.31
2024-03-02T15:22:24.733Z,72.22
2024-03-02T15:25:11.718Z,72.02
2024-03-02T15:27:58.639Z,72.23
2024-03-02T15:30:48.270Z,72.27
2024-03-02T15:33:37.125Z,72.06
2024-03-02T15:36:24.840Z,71.82
2024-03-02T15:39:16.141Z,71.80
2024-03-02T15:42:05.070Z,72.03
2024-03-02T15:44:51.996Z,72.41
2024-03-02T15:47:39.148Z,72.67
2024-03-02T15:50:26.177Z,72.97
2024-03-02T15:53:14.455Z,73.13
2024-03-02T15:56:01.241Z,73.25
2024-03-02T15:58:48.357Z,73.56
2024-03-02T16:01:35.653Z,73.75
2024-03-02T16:04:23.916Z,73.97
2024-03-02T16:07:10.754Z,74.36
2024-03-02T16:09:57.820Z,74.16
2024-03-02T16:12:44.764Z,73.93
2024-03-02T16:15:35.395Z,73.76
2024-03-02T16:18:22.547Z,74.09
2024-03-02T16:21:09.991Z,73.92
2024-03-02T16:23:56.929Z,73.81
2024-03-02T16:26:43.686Z,73.75
2024-03-02T16:29:30.546Z,73.75
2024-03-02T16:32:17.525Z,73.64
2024-03-02T16:35:05.056Z,73.39
2024-03-02T16:37:53.584Z,73.46
2024-03-02T16:40:41.751Z,73.29
2024-03-02T16:43:28.683Z,73.16
2024-03-02T16:46:15.430Z,73.15
2024-03-02T16:49:02.403Z,73.26
2024-03-02T16:51:52.142Z,73.31
2024-03-02T16:54:39.671Z,73.09
2024-03-02T16:57:26.874Z,73.00
2024-03-02T17:00:14.803Z,73.14
2024-03-02T17:03:01.541Z,72.93
2024-03-02T17:05:49.033Z,72.81
2024-03-02T17:08:38.094Z,73.16
2024-03-02T17:11:24.791Z,73.24
2024-03-02T17:14:15.569Z,73.42
2024-03-02T17:17:02.998Z,73.47
2024-03-02T17:19:49.691Z,73.58
2024-03-02T17:22:37.181Z,73.45
2024-03-02T17:25:24.053Z,73.70
2024-03-02T17:28:25.136Z,73.85
2024-03-02T17:31:12.365Z,73.61
2024-03-02T17:33:59.380Z,74.02
2024-03-02T17:36:46.398Z,74.13
2024-03-02T17:39:36.172Z,74.15
2024-03-02T17:42:23.431Z,74.38
2024-03-02T17:45:12.953Z,74.26
2024-03-02T17:48:00.672Z,74.63
2024-03-02T17:50:48.107Z,74.59
2024-03-02T17:53:37.997Z,74.71
2024-03-02T17:56:25.031Z,74.61
2024-03-02T17:59:12.575Z,74.60
2024-03-02T18:02:04.929Z,74.73
2024-03-02T18:04:51.661Z,74.91
2024-03-02T18:07:38.744Z,74.97
2024-03-02T18:10:26.071Z,74.78
2024-03-02T18:13:13.530Z,74.97
2024-03-02T18:16:00.957Z,74.79
2024-03-02T18:18:49.560Z,74.83
2024-03-02T18:21:37.416Z,74.34
2024-03-02T18:24:27.738Z,74.79
2024-03-02T18:27:14.506Z,74.84
2024-03-02T18:30:01.255Z,75.15
2024-03-02T18:32:48.363Z,75.32
2024-03-02T18:35:37.542Z,75.42
2024-03-02T18:38:24.830Z,75.57
2024-03-02T18:41:11.813Z,75.50
2024-03-02T18:43:59.197Z,75.27
2024-03-02T18:46:48.212Z,75.21
2024-03-02T18:49:36.106Z,75.22
2024-03-02T18:52:23.667Z,75.27
2024-03-02T18:55:12.825Z,75.26
2024-03-02T18:58:00.393Z,75.09
2024-03-02T19:00:47.636Z,75.09
2024-03-02T19:03:36.458Z,75.17
2024-03-02T19:06:23.620Z,74.94
2024-03-02T19:09:11.337Z,75.00
2024-03-02T19:11:58.252Z,75.18
2024-03-02T19:14:47.183Z,75.06
2024-03-02T19:17:34.593Z,75.21
2024-03-02T19:20:21.559Z,75.12
2024-03-02T19:23:12.148Z,75.16
2024-03-02T19:26:02.571Z,75.62
2024-03-02T19:28:49.649Z,75.55
2024-03-02T19:31:37.366Z,75.57
2024-03-02T19:34:25.229Z,75.46
2024-03-02T19:37:12.475Z,75.56
2024-03-02T19:39:59.706Z,75.81
2024-03-02T19:42:49.130Z,75.87
2024-03-02T19:45:36.094Z,75.97
2024-03-02T19:48:23.867Z,76.02
2024-03-02T19:51:10.734Z,76.33
2024-03-02T19:53:59.164Z,76.17
2024-03-02T19:56:46.847Z,76.25
2024-03-02T19:59:34.203Z,76.21
2024-03-02T20:02:23.356Z,76.49
2024-03-02T20:05:12.292Z,76.63
2024-03-02T20:07:59.608Z,76.59
2024-03-02T20:10:48.019Z,77.04
2024-03-02T20:13:35.986Z,77.35
2024-03-02T20:16:22.846Z,77.45
2024-03-02T20:19:10.286Z,77.64
2024-03-02T20:21:57.239Z,77.77
2024-03-02T20:24:44.330Z,77.91
2024-03-02T20:27:31.458Z,78.01
2024-03-02T20:30:18.697Z,78.36
2024-03-02T20:33:05.788Z,78.26
2024-03-02T20:35:52.848Z,78.34
2024-03-02T20:38:39.766Z,78.22
2024-03-02T20:41:27.262Z,78.67
2024-03-02T20:44:16.615Z,78.80
2024-03-02T20:47:04.210Z,78.80
2024-03-02T20:49:52.531Z,78.90
2024-03-02T20:52:39.683Z,79.11
2024-03-02T20:55:26.584Z,79.48
2024-03-02T20:58:15.165Z,79.33
2024-03-02T21:01:02.381Z,79.69
2024-03-02T21:03:49.257Z,79.73
2024-03-02T21:06:36.367Z,79.95
2024-03-02T21:09:23.170Z,79.97
2024-03-02T21:12:10.048Z,80.14
2024-03-02T21:14:57.104Z,80.20
2024-03-02T21:17:47.318Z,80.09
2024-03-02T21:20:34.265Z,80.33
2024-03-02T21:23:21.548Z,80.33
2024-03-02T21:26:08.626Z,80.28
2024-03-02T21:28:55.613Z,80.18
2024-03-02T21:31:42.429Z,79.92
2024-03-02T21:34:29.441Z,79.57
2024-03-02T21:37:16.363Z,79.45
2024-03-02T21:40:04.002Z,79.36
2024-03-02T21:42:56.422Z,79.19
2024-03-02T21:45:44.008Z,79.20
2024-03-02T21:48:31.170Z,78.75
2024-03-02T21:51:19.840Z,78.82
2024-03-02T21:54:06.947Z,78.91
2024-03-02T21:56:55.114Z,78.69
2024-03-02T21:59:42.808Z,78.81
2024-03-02T22:02:29.883Z,78.55
2024-03-02T22:05:16.974Z,78.58
2024-03-02T22:08:04.072Z,78.67
2024-03-02T22:10:51.020Z,78.53
2024-03-02T22:13:39.094Z,78.83
2024-03-02T22:16:27.165Z,78.73
2024-03-02T22:19:14.027Z,78.86
2024-03-02T22:22:01.020Z,78.67
2024-03-02T22:24:48.437Z,78.74
2024-03-02T22:27:39.730Z,78.71
2024-03-02T22:30:28.397Z,78.60
2024-03-02T22:33:15.492Z,78.61
2024-03-02T22:36:02.448Z,78.76
2024-03-02T22:38:49.372Z,78.59
2024-03-02T22:41:36.714Z,78.88
2024-03-02T22:44:23.708Z,78.73
2024-03-02T22:47:13.301Z,78.73
2024-03-02T22:50:05.932Z,78.81
2024-03-02T22:52:53.378Z,78.87
2024-03-02T22:55:41.096Z,78.74
2024-03-02T22:58:28.173Z,78.81
2024-03-02T23:01:15.415Z,78.49
2024-03-02T23:04:02.577Z,78.50
2024-03-02T23:06:50.065Z,78.22
2024-03-02T23:09:37.507Z,77.96
2024-03-02T23:12:31.425Z,77.76
2024-03-02T23:15:18.926Z,77.83
2024-03-02T23:18:06.300Z,77.52
2024-03-02T23:20:53.225Z,77.04
2024-03-02T23:23:41.032Z,76.40
2024-03-02T23:26:27.809Z,75.93
2024-03-02T23:29:15.052Z,75.49
2024-03-02T23:32:02.532Z,75.14
2024-03-02T23:34:49.718Z,75.32
2024-03-02T23:37:36.184Z,75.20
2024-03-02T23:40:28.902Z,75.26
2024-03-02T23:43:16.150Z,75.08
2024-03-02T23:46:02.952Z,74.73
2024-03-02T23:48:49.778Z,74.55
2024-03-02T23:51:36.713Z,74.44
2024-03-02T23:54:26.674Z,73.83
2024-03-02T23:57:14.061Z,73.98
